sensor_id;sensor_type;location;lat;lon;timestamp;P1;durP1;ratioP1;P2;durP2;ratioP2
26191;SDS011;13935;55.672;37.764;2023-05-18T00:05:38;34.22;;;18.60;;
26191;SDS011;13935;55.672;37.764;2023-05-18T00:06:44;34.38;;;18.48;;
26191;SDS011;13935;55.672;37.764;2023-05-18T00:09:20;37.17;;;16.80;;
26191;SDS011;13935;55.672;37.764;2023-05-18T00:10:26;35.55;;;17.55;;
26191;SDS011;13935;55.672;37.764;2023-05-18T00:11:47;37.38;;;17.25;;
26191;SDS011;13935;55.672;37.764;2023-05-18T00:16:42;37.35;;;17.08;;
26191;SDS011;13935;55.672;37.764;2023-05-18T00:21:30;37.92;;;17.23;;
26191;SDS011;13935;55.672;37.764;2023-05-18T01:42:42;38.25;;;20.25;;
26191;SDS011;13935;55.672;37.764;2023-05-18T01:45:25;39.05;;;19.17;;
26191;SDS011;13935;55.672;37.764;2023-05-18T01:50:54;40.55;;;20.35;;
26191;SDS011;13935;55.672;37.764;2023-05-18T01:52:08;32.15;;;19.85;;
26191;SDS011;13935;55.672;37.764;2023-05-18T01:56:40;39.47;;;20.58;;
26191;SDS011;13935;55.672;37.764;2023-05-18T01:57:48;35.65;;;20.08;;
26191;SDS011;13935;55.672;37.764;2023-05-18T02:35:45;38.63;;;20.10;;
26191;SDS011;13935;55.672;37.764;2023-05-18T02:36:47;35.55;;;19.83;;
26191;SDS011;13935;55.672;37.764;2023-05-18T02:37:51;41.92;;;20.38;;
26191;SDS011;13935;55.672;37.764;2023-05-18T02:38:55;32.65;;;20.38;;
26191;SDS011;13935;55.672;37.764;2023-05-18T02:39:57;30.65;;;19.73;;
26191;SDS011;13935;55.672;37.764;2023-05-18T02:40:59;46.33;;;20.40;;
26191;SDS011;13935;55.672;37.764;2023-05-18T02:42:01;41.45;;;20.42;;
26191;SDS011;13935;55.672;37.764;2023-05-18T02:43:03;35.72;;;19.50;;
26191;SDS011;13935;55.672;37.764;2023-05-18T02:44:05;30.80;;;19.33;;
26191;SDS011;13935;55.672;37.764;2023-05-18T02:45:09;32.30;;;19.80;;
26191;SDS011;13935;55.672;37.764;2023-05-18T02:46:13;30.85;;;18.77;;
26191;SDS011;13935;55.672;37.764;2023-05-18T02:47:15;32.70;;;19.38;;
26191;SDS011;13935;55.672;37.764;2023-05-18T02:48:17;29.48;;;19.65;;
26191;SDS011;13935;55.672;37.764;2023-05-18T02:49:19;30.08;;;18.38;;
26191;SDS011;13935;55.672;37.764;2023-05-18T02:50:21;32.97;;;18.80;;
26191;SDS011;13935;55.672;37.764;2023-05-18T02:51:23;32.45;;;19.08;;
26191;SDS011;13935;55.672;37.764;2023-05-18T02:52:25;29.15;;;19.05;;
26191;SDS011;13935;55.672;37.764;2023-05-18T02:53:29;30.98;;;18.83;;
26191;SDS011;13935;55.672;37.764;2023-05-18T02:54:37;31.75;;;19.77;;
26191;SDS011;13935;55.672;37.764;2023-05-18T02:55:44;33.15;;;19.73;;
26191;SDS011;13935;55.672;37.764;2023-05-18T02:56:51;34.42;;;20.23;;
26191;SDS011;13935;55.672;37.764;2023-05-18T02:58:06;30.85;;;18.40;;
26191;SDS011;13935;55.672;37.764;2023-05-18T02:59:32;27.17;;;17.40;;
26191;SDS011;13935;55.672;37.764;2023-05-18T03:00:34;33.47;;;17.95;;
26191;SDS011;13935;55.672;37.764;2023-05-18T03:01:36;35.92;;;18.70;;
26191;SDS011;13935;55.672;37.764;2023-05-18T03:02:41;30.90;;;18.30;;
26191;SDS011;13935;55.672;37.764;2023-05-18T03:03:45;32.35;;;18.30;;
26191;SDS011;13935;55.672;37.764;2023-05-18T03:04:48;30.90;;;19.58;;
26191;SDS011;13935;55.672;37.764;2023-05-18T03:05:55;30.90;;;17.98;;
26191;SDS011;13935;55.672;37.764;2023-05-18T03:06:57;28.50;;;18.48;;
26191;SDS011;13935;55.672;37.764;2023-05-18T03:08:03;30.50;;;18.45;;
26191;SDS011;13935;55.672;37.764;2023-05-18T03:09:06;26.27;;;17.95;;
26191;SDS011;13935;55.672;37.764;2023-05-18T03:10:14;35.13;;;19.10;;
26191;SDS011;13935;55.672;37.764;2023-05-18T03:11:16;30.40;;;18.75;;
26191;SDS011;13935;55.672;37.764;2023-05-18T03:12:18;26.88;;;18.60;;
26191;SDS011;13935;55.672;37.764;2023-05-18T03:13:20;28.15;;;18.92;;
26191;SDS011;13935;55.672;37.764;2023-05-18T03:14:22;28.27;;;18.20;;
26191;SDS011;13935;55.672;37.764;2023-05-18T03:15:24;28.55;;;18.35;;
26191;SDS011;13935;55.672;37.764;2023-05-18T03:16:28;27.13;;;18.17;;
26191;SDS011;13935;55.672;37.764;2023-05-18T03:17:31;29.80;;;18.25;;
26191;SDS011;13935;55.672;37.764;2023-05-18T03:18:34;26.92;;;17.88;;
26191;SDS011;13935;55.672;37.764;2023-05-18T03:19:36;26.73;;;17.73;;
26191;SDS011;13935;55.672;37.764;2023-05-18T03:20:38;29.52;;;18.92;;
26191;SDS011;13935;55.672;37.764;2023-05-18T03:21:41;29.33;;;17.52;;
26191;SDS011;13935;55.672;37.764;2023-05-18T03:22:44;32.08;;;18.48;;
26191;SDS011;13935;55.672;37.764;2023-05-18T03:23:46;34.38;;;18.75;;
26191;SDS011;13935;55.672;37.764;2023-05-18T03:24:49;26.42;;;17.70;;
26191;SDS011;13935;55.672;37.764;2023-05-18T03:25:52;26.10;;;17.30;;
26191;SDS011;13935;55.672;37.764;2023-05-18T03:26:58;29.70;;;18.73;;
26191;SDS011;13935;55.672;37.764;2023-05-18T03:28:05;31.35;;;18.27;;
26191;SDS011;13935;55.672;37.764;2023-05-18T03:29:08;29.08;;;18.45;;
26191;SDS011;13935;55.672;37.764;2023-05-18T03:30:10;24.65;;;18.38;;
26191;SDS011;13935;55.672;37.764;2023-05-18T03:31:13;31.90;;;18.27;;
26191;SDS011;13935;55.672;37.764;2023-05-18T03:32:15;26.30;;;19.27;;
26191;SDS011;13935;55.672;37.764;2023-05-18T03:33:17;26.83;;;18.52;;
26191;SDS011;13935;55.672;37.764;2023-05-18T03:34:20;31.15;;;19.20;;
26191;SDS011;13935;55.672;37.764;2023-05-18T03:35:22;28.42;;;19.42;;
26191;SDS011;13935;55.672;37.764;2023-05-18T03:36:24;28.77;;;19.05;;
26191;SDS011;13935;55.672;37.764;2023-05-18T03:37:29;30.05;;;19.95;;
26191;SDS011;13935;55.672;37.764;2023-05-18T03:38:32;29.77;;;19.13;;
26191;SDS011;13935;55.672;37.764;2023-05-18T03:39:40;29.13;;;19.33;;
26191;SDS011;13935;55.672;37.764;2023-05-18T03:40:42;29.52;;;19.23;;
26191;SDS011;13935;55.672;37.764;2023-05-18T03:41:44;28.70;;;17.98;;
26191;SDS011;13935;55.672;37.764;2023-05-18T03:42:46;30.08;;;18.55;;
26191;SDS011;13935;55.672;37.764;2023-05-18T03:43:48;28.30;;;17.92;;
26191;SDS011;13935;55.672;37.764;2023-05-18T03:44:51;26.38;;;17.73;;
26191;SDS011;13935;55.672;37.764;2023-05-18T03:45:53;30.70;;;17.98;;
26191;SDS011;13935;55.672;37.764;2023-05-18T03:46:55;24.85;;;18.33;;
26191;SDS011;13935;55.672;37.764;2023-05-18T03:47:57;32.00;;;18.67;;
26191;SDS011;13935;55.672;37.764;2023-05-18T03:49:00;28.98;;;17.67;;
26191;SDS011;13935;55.672;37.764;2023-05-18T03:50:08;24.45;;;16.83;;
26191;SDS011;13935;55.672;37.764;2023-05-18T03:51:11;22.60;;;17.30;;
26191;SDS011;13935;55.672;37.764;2023-05-18T03:52:13;27.98;;;17.83;;
26191;SDS011;13935;55.672;37.764;2023-05-18T03:53:18;33.33;;;17.23;;
26191;SDS011;13935;55.672;37.764;2023-05-18T03:54:24;25.85;;;17.73;;
26191;SDS011;13935;55.672;37.764;2023-05-18T03:55:26;25.35;;;17.33;;
26191;SDS011;13935;55.672;37.764;2023-05-18T03:56:28;24.77;;;17.30;;
26191;SDS011;13935;55.672;37.764;2023-05-18T03:57:31;30.13;;;17.10;;
26191;SDS011;13935;55.672;37.764;2023-05-18T03:58:35;31.50;;;18.10;;
26191;SDS011;13935;55.672;37.764;2023-05-18T03:59:37;25.77;;;17.85;;
26191;SDS011;13935;55.672;37.764;2023-05-18T04:00:40;26.65;;;17.67;;
26191;SDS011;13935;55.672;37.764;2023-05-18T04:01:46;25.48;;;17.75;;
26191;SDS011;13935;55.672;37.764;2023-05-18T04:02:48;30.40;;;17.45;;
26191;SDS011;13935;55.672;37.764;2023-05-18T04:03:57;26.63;;;17.10;;
26191;SDS011;13935;55.672;37.764;2023-05-18T04:05:00;29.45;;;17.35;;
26191;SDS011;13935;55.672;37.764;2023-05-18T04:06:04;24.77;;;16.75;;
26191;SDS011;13935;55.672;37.764;2023-05-18T04:07:07;28.17;;;16.20;;
26191;SDS011;13935;55.672;37.764;2023-05-18T04:08:09;24.05;;;15.93;;
26191;SDS011;13935;55.672;37.764;2023-05-18T04:09:16;22.88;;;16.38;;
26191;SDS011;13935;55.672;37.764;2023-05-18T04:10:19;24.25;;;16.85;;
26191;SDS011;13935;55.672;37.764;2023-05-18T04:11:22;26.35;;;17.08;;
26191;SDS011;13935;55.672;37.764;2023-05-18T04:12:24;25.05;;;17.40;;
26191;SDS011;13935;55.672;37.764;2023-05-18T04:13:26;25.00;;;16.80;;
26191;SDS011;13935;55.672;37.764;2023-05-18T04:14:47;25.27;;;16.58;;
26191;SDS011;13935;55.672;37.764;2023-05-18T04:15:54;24.95;;;16.98;;
26191;SDS011;13935;55.672;37.764;2023-05-18T04:16:59;24.83;;;17.17;;
26191;SDS011;13935;55.672;37.764;2023-05-18T04:18:05;22.92;;;17.23;;
26191;SDS011;13935;55.672;37.764;2023-05-18T04:19:08;29.67;;;17.10;;
26191;SDS011;13935;55.672;37.764;2023-05-18T04:20:11;29.52;;;16.85;;
26191;SDS011;13935;55.672;37.764;2023-05-18T04:21:15;22.15;;;15.98;;
26191;SDS011;13935;55.672;37.764;2023-05-18T04:22:19;29.77;;;16.35;;
26191;SDS011;13935;55.672;37.764;2023-05-18T04:23:22;22.95;;;17.00;;
26191;SDS011;13935;55.672;37.764;2023-05-18T04:24:24;21.80;;;16.52;;
26191;SDS011;13935;55.672;37.764;2023-05-18T04:25:27;24.33;;;16.83;;
26191;SDS011;13935;55.672;37.764;2023-05-18T04:26:32;22.77;;;16.30;;
26191;SDS011;13935;55.672;37.764;2023-05-18T04:27:37;26.88;;;16.48;;
26191;SDS011;13935;55.672;37.764;2023-05-18T04:28:40;23.90;;;16.90;;
26191;SDS011;13935;55.672;37.764;2023-05-18T04:29:43;29.08;;;16.20;;
26191;SDS011;13935;55.672;37.764;2023-05-18T04:30:46;27.20;;;17.58;;
26191;SDS011;13935;55.672;37.764;2023-05-18T04:31:48;21.60;;;16.20;;
26191;SDS011;13935;55.672;37.764;2023-05-18T04:32:51;23.30;;;17.15;;
26191;SDS011;13935;55.672;37.764;2023-05-18T04:33:56;24.75;;;17.15;;
26191;SDS011;13935;55.672;37.764;2023-05-18T04:35:04;25.92;;;17.17;;
26191;SDS011;13935;55.672;37.764;2023-05-18T04:36:11;20.58;;;17.15;;
26191;SDS011;13935;55.672;37.764;2023-05-18T04:37:13;24.20;;;17.45;;
26191;SDS011;13935;55.672;37.764;2023-05-18T04:38:19;25.02;;;16.92;;
26191;SDS011;13935;55.672;37.764;2023-05-18T04:39:25;23.05;;;16.80;;
26191;SDS011;13935;55.672;37.764;2023-05-18T04:40:28;24.70;;;17.30;;
26191;SDS011;13935;55.672;37.764;2023-05-18T04:41:35;21.42;;;16.38;;
26191;SDS011;13935;55.672;37.764;2023-05-18T04:42:38;22.58;;;16.77;;
26191;SDS011;13935;55.672;37.764;2023-05-18T04:43:46;24.08;;;17.40;;
26191;SDS011;13935;55.672;37.764;2023-05-18T04:44:54;22.83;;;17.02;;
26191;SDS011;13935;55.672;37.764;2023-05-18T04:45:56;26.17;;;17.20;;
26191;SDS011;13935;55.672;37.764;2023-05-18T04:46:59;22.05;;;16.08;;
26191;SDS011;13935;55.672;37.764;2023-05-18T04:48:02;22.50;;;17.27;;
26191;SDS011;13935;55.672;37.764;2023-05-18T04:49:06;27.95;;;18.15;;
26191;SDS011;13935;55.672;37.764;2023-05-18T04:50:10;23.73;;;17.67;;
26191;SDS011;13935;55.672;37.764;2023-05-18T04:51:12;27.77;;;18.20;;
26191;SDS011;13935;55.672;37.764;2023-05-18T04:52:14;22.25;;;16.25;;
26191;SDS011;13935;55.672;37.764;2023-05-18T04:53:16;22.80;;;17.00;;
26191;SDS011;13935;55.672;37.764;2023-05-18T04:54:26;22.35;;;17.90;;
26191;SDS011;13935;55.672;37.764;2023-05-18T04:55:31;28.17;;;18.27;;
26191;SDS011;13935;55.672;37.764;2023-05-18T04:56:43;23.42;;;17.67;;
26191;SDS011;13935;55.672;37.764;2023-05-18T04:57:48;23.75;;;17.33;;
26191;SDS011;13935;55.672;37.764;2023-05-18T04:58:54;24.55;;;17.45;;
26191;SDS011;13935;55.672;37.764;2023-05-18T05:00:02;23.07;;;16.80;;
26191;SDS011;13935;55.672;37.764;2023-05-18T05:01:07;24.55;;;18.65;;
26191;SDS011;13935;55.672;37.764;2023-05-18T05:02:09;24.13;;;18.52;;
26191;SDS011;13935;55.672;37.764;2023-05-18T05:03:11;23.23;;;17.70;;
26191;SDS011;13935;55.672;37.764;2023-05-18T05:04:14;22.00;;;17.33;;
26191;SDS011;13935;55.672;37.764;2023-05-18T05:05:16;26.02;;;17.63;;
26191;SDS011;13935;55.672;37.764;2023-05-18T05:06:18;27.30;;;18.42;;
26191;SDS011;13935;55.672;37.764;2023-05-18T05:07:20;22.58;;;16.88;;
26191;SDS011;13935;55.672;37.764;2023-05-18T05:08:22;27.10;;;17.98;;
26191;SDS011;13935;55.672;37.764;2023-05-18T05:09:24;21.52;;;17.38;;
26191;SDS011;13935;55.672;37.764;2023-05-18T05:10:27;21.83;;;17.67;;
26191;SDS011;13935;55.672;37.764;2023-05-18T05:11:29;23.08;;;17.73;;
26191;SDS011;13935;55.672;37.764;2023-05-18T05:12:31;23.92;;;17.67;;
26191;SDS011;13935;55.672;37.764;2023-05-18T05:13:33;28.08;;;17.73;;
26191;SDS011;13935;55.672;37.764;2023-05-18T05:14:37;22.52;;;17.92;;
26191;SDS011;13935;55.672;37.764;2023-05-18T05:15:40;24.50;;;17.65;;
26191;SDS011;13935;55.672;37.764;2023-05-18T05:16:42;27.63;;;17.30;;
26191;SDS011;13935;55.672;37.764;2023-05-18T05:17:47;23.67;;;17.23;;
26191;SDS011;13935;55.672;37.764;2023-05-18T05:18:50;22.00;;;16.75;;
26191;SDS011;13935;55.672;37.764;2023-05-18T05:19:53;24.42;;;18.23;;
26191;SDS011;13935;55.672;37.764;2023-05-18T05:20:56;24.23;;;17.15;;
26191;SDS011;13935;55.672;37.764;2023-05-18T05:22:00;23.80;;;18.58;;
26191;SDS011;13935;55.672;37.764;2023-05-18T05:23:03;25.35;;;17.83;;
26191;SDS011;13935;55.672;37.764;2023-05-18T05:24:06;23.98;;;17.25;;
26191;SDS011;13935;55.672;37.764;2023-05-18T05:25:09;24.65;;;17.27;;
26191;SDS011;13935;55.672;37.764;2023-05-18T05:26:11;26.33;;;16.90;;
26191;SDS011;13935;55.672;37.764;2023-05-18T05:27:14;24.55;;;16.38;;
26191;SDS011;13935;55.672;37.764;2023-05-18T05:28:16;24.38;;;16.63;;
26191;SDS011;13935;55.672;37.764;2023-05-18T05:29:18;27.88;;;17.10;;
26191;SDS011;13935;55.672;37.764;2023-05-18T05:30:20;21.80;;;16.83;;
26191;SDS011;13935;55.672;37.764;2023-05-18T05:31:30;21.30;;;15.68;;
26191;SDS011;13935;55.672;37.764;2023-05-18T05:32:32;29.10;;;17.83;;
26191;SDS011;13935;55.672;37.764;2023-05-18T05:33:35;21.55;;;16.42;;
26191;SDS011;13935;55.672;37.764;2023-05-18T05:34:39;20.52;;;15.32;;
26191;SDS011;13935;55.672;37.764;2023-05-18T05:35:41;19.65;;;15.48;;
26191;SDS011;13935;55.672;37.764;2023-05-18T05:36:43;23.45;;;16.33;;
26191;SDS011;13935;55.672;37.764;2023-05-18T05:37:45;26.80;;;16.98;;
26191;SDS011;13935;55.672;37.764;2023-05-18T05:38:48;21.80;;;16.27;;
26191;SDS011;13935;55.672;37.764;2023-05-18T05:39:50;20.70;;;15.77;;
26191;SDS011;13935;55.672;37.764;2023-05-18T05:40:52;24.73;;;15.32;;
26191;SDS011;13935;55.672;37.764;2023-05-18T05:41:57;21.75;;;15.77;;
26191;SDS011;13935;55.672;37.764;2023-05-18T05:42:59;24.15;;;15.18;;
26191;SDS011;13935;55.672;37.764;2023-05-18T05:44:02;20.17;;;14.52;;
26191;SDS011;13935;55.672;37.764;2023-05-18T05:45:05;28.45;;;15.77;;
26191;SDS011;13935;55.672;37.764;2023-05-18T05:46:13;25.05;;;15.00;;
26191;SDS011;13935;55.672;37.764;2023-05-18T05:47:16;24.42;;;14.35;;
26191;SDS011;13935;55.672;37.764;2023-05-18T05:48:18;21.52;;;14.13;;
26191;SDS011;13935;55.672;37.764;2023-05-18T05:49:24;15.15;;;12.43;;
26191;SDS011;13935;55.672;37.764;2023-05-18T05:50:26;14.25;;;12.25;;
26191;SDS011;13935;55.672;37.764;2023-05-18T05:51:31;21.48;;;13.32;;
26191;SDS011;13935;55.672;37.764;2023-05-18T05:52:34;17.42;;;12.50;;
26191;SDS011;13935;55.672;37.764;2023-05-18T05:53:43;18.77;;;12.55;;
26191;SDS011;13935;55.672;37.764;2023-05-18T05:54:50;14.38;;;11.95;;
26191;SDS011;13935;55.672;37.764;2023-05-18T05:55:53;15.23;;;11.68;;
26191;SDS011;13935;55.672;37.764;2023-05-18T05:56:56;19.42;;;12.07;;
26191;SDS011;13935;55.672;37.764;2023-05-18T05:57:58;16.23;;;11.35;;
26191;SDS011;13935;55.672;37.764;2023-05-18T05:59:03;15.40;;;10.70;;
26191;SDS011;13935;55.672;37.764;2023-05-18T06:00:05;14.57;;;10.23;;
26191;SDS011;13935;55.672;37.764;2023-05-18T06:01:29;18.67;;;10.80;;
26191;SDS011;13935;55.672;37.764;2023-05-18T06:02:32;20.75;;;11.18;;
26191;SDS011;13935;55.672;37.764;2023-05-18T06:03:35;11.88;;;9.35;;
26191;SDS011;13935;55.672;37.764;2023-05-18T06:04:41;15.25;;;8.70;;
26191;SDS011;13935;55.672;37.764;2023-05-18T06:05:44;15.10;;;8.95;;
26191;SDS011;13935;55.672;37.764;2023-05-18T06:06:49;15.48;;;8.63;;
26191;SDS011;13935;55.672;37.764;2023-05-18T06:07:52;11.85;;;8.88;;
26191;SDS011;13935;55.672;37.764;2023-05-18T06:08:58;13.43;;;9.38;;
26191;SDS011;13935;55.672;37.764;2023-05-18T06:10:03;15.65;;;8.95;;
26191;SDS011;13935;55.672;37.764;2023-05-18T06:11:05;12.63;;;8.35;;
26191;SDS011;13935;55.672;37.764;2023-05-18T06:12:10;11.60;;;7.70;;
26191;SDS011;13935;55.672;37.764;2023-05-18T06:13:12;13.38;;;8.43;;
26191;SDS011;13935;55.672;37.764;2023-05-18T06:14:37;22.10;;;9.60;;
26191;SDS011;13935;55.672;37.764;2023-05-18T06:15:40;23.02;;;9.98;;
26191;SDS011;13935;55.672;37.764;2023-05-18T06:16:42;39.60;;;11.02;;
26191;SDS011;13935;55.672;37.764;2023-05-18T06:17:44;13.45;;;8.85;;
26191;SDS011;13935;55.672;37.764;2023-05-18T06:18:47;14.45;;;8.93;;
26191;SDS011;13935;55.672;37.764;2023-05-18T06:19:51;15.48;;;8.80;;
26191;SDS011;13935;55.672;37.764;2023-05-18T06:20:53;11.93;;;8.32;;
26191;SDS011;13935;55.672;37.764;2023-05-18T06:21:56;15.80;;;8.98;;
26191;SDS011;13935;55.672;37.764;2023-05-18T06:23:02;16.27;;;8.50;;
26191;SDS011;13935;55.672;37.764;2023-05-18T06:24:26;10.95;;;7.68;;
26191;SDS011;13935;55.672;37.764;2023-05-18T06:25:50;15.45;;;7.72;;
26191;SDS011;13935;55.672;37.764;2023-05-18T06:27:05;12.35;;;7.47;;
26191;SDS011;13935;55.672;37.764;2023-05-18T06:28:13;16.25;;;9.40;;
26191;SDS011;13935;55.672;37.764;2023-05-18T06:29:20;12.75;;;8.10;;
26191;SDS011;13935;55.672;37.764;2023-05-18T06:30:41;14.07;;;8.50;;
26191;SDS011;13935;55.672;37.764;2023-05-18T06:31:49;10.27;;;7.38;;
26191;SDS011;13935;55.672;37.764;2023-05-18T06:32:56;18.40;;;7.72;;
26191;SDS011;13935;55.672;37.764;2023-05-18T06:33:58;16.63;;;8.50;;
26191;SDS011;13935;55.672;37.764;2023-05-18T06:35:00;15.70;;;9.18;;
26191;SDS011;13935;55.672;37.764;2023-05-18T06:36:03;11.93;;;7.85;;
26191;SDS011;13935;55.672;37.764;2023-05-18T06:37:06;12.35;;;7.30;;
26191;SDS011;13935;55.672;37.764;2023-05-18T06:38:09;10.20;;;8.73;;
26191;SDS011;13935;55.672;37.764;2023-05-18T06:39:13;8.98;;;7.38;;
26191;SDS011;13935;55.672;37.764;2023-05-18T06:40:15;10.55;;;7.32;;
26191;SDS011;13935;55.672;37.764;2023-05-18T06:41:20;9.32;;;7.05;;
26191;SDS011;13935;55.672;37.764;2023-05-18T06:42:23;13.43;;;7.20;;
26191;SDS011;13935;55.672;37.764;2023-05-18T06:43:36;8.63;;;6.72;;
26191;SDS011;13935;55.672;37.764;2023-05-18T06:44:57;12.45;;;7.63;;
26191;SDS011;13935;55.672;37.764;2023-05-18T06:46:41;13.25;;;7.68;;
26191;SDS011;13935;55.672;37.764;2023-05-18T06:47:58;10.65;;;7.30;;
26191;SDS011;13935;55.672;37.764;2023-05-18T06:49:03;10.35;;;7.15;;
26191;SDS011;13935;55.672;37.764;2023-05-18T06:50:09;11.95;;;6.90;;
26191;SDS011;13935;55.672;37.764;2023-05-18T06:51:15;8.73;;;6.85;;
26191;SDS011;13935;55.672;37.764;2023-05-18T06:52:18;11.98;;;7.03;;
26191;SDS011;13935;55.672;37.764;2023-05-18T06:53:20;11.25;;;6.88;;
26191;SDS011;13935;55.672;37.764;2023-05-18T06:54:25;8.30;;;6.90;;
26191;SDS011;13935;55.672;37.764;2023-05-18T06:55:27;11.55;;;6.80;;
26191;SDS011;13935;55.672;37.764;2023-05-18T06:56:31;10.45;;;7.43;;
26191;SDS011;13935;55.672;37.764;2023-05-18T06:57:34;13.27;;;9.60;;
26191;SDS011;13935;55.672;37.764;2023-05-18T06:58:38;8.80;;;6.57;;
26191;SDS011;13935;55.672;37.764;2023-05-18T06:59:43;12.23;;;6.65;;
26191;SDS011;13935;55.672;37.764;2023-05-18T07:00:45;10.38;;;6.70;;
26191;SDS011;13935;55.672;37.764;2023-05-18T07:01:49;8.00;;;6.50;;
26191;SDS011;13935;55.672;37.764;2023-05-18T07:02:51;7.78;;;6.35;;
26191;SDS011;13935;55.672;37.764;2023-05-18T07:03:53;9.35;;;6.28;;
26191;SDS011;13935;55.672;37.764;2023-05-18T07:04:57;11.25;;;6.00;;
26191;SDS011;13935;55.672;37.764;2023-05-18T07:05:59;12.88;;;6.30;;
26191;SDS011;13935;55.672;37.764;2023-05-18T07:07:01;10.90;;;6.20;;
26191;SDS011;13935;55.672;37.764;2023-05-18T07:08:04;13.68;;;6.18;;
26191;SDS011;13935;55.672;37.764;2023-05-18T07:09:06;11.30;;;6.40;;
26191;SDS011;13935;55.672;37.764;2023-05-18T07:10:09;12.30;;;6.78;;
26191;SDS011;13935;55.672;37.764;2023-05-18T07:11:11;9.07;;;6.18;;
26191;SDS011;13935;55.672;37.764;2023-05-18T07:12:13;10.23;;;7.00;;
26191;SDS011;13935;55.672;37.764;2023-05-18T07:13:15;6.82;;;5.78;;
26191;SDS011;13935;55.672;37.764;2023-05-18T07:14:18;9.68;;;6.00;;
26191;SDS011;13935;55.672;37.764;2023-05-18T07:15:23;5.78;;;5.18;;
26191;SDS011;13935;55.672;37.764;2023-05-18T07:16:26;9.90;;;6.50;;
26191;SDS011;13935;55.672;37.764;2023-05-18T07:17:29;7.88;;;5.90;;
26191;SDS011;13935;55.672;37.764;2023-05-18T07:18:31;9.13;;;5.78;;
26191;SDS011;13935;55.672;37.764;2023-05-18T07:19:35;6.65;;;5.57;;
26191;SDS011;13935;55.672;37.764;2023-05-18T07:20:38;12.68;;;6.38;;
26191;SDS011;13935;55.672;37.764;2023-05-18T07:22:17;10.95;;;5.80;;
26191;SDS011;13935;55.672;37.764;2023-05-18T07:23:33;8.02;;;6.05;;
26191;SDS011;13935;55.672;37.764;2023-05-18T07:25:03;8.05;;;5.88;;
26191;SDS011;13935;55.672;37.764;2023-05-18T07:26:06;6.78;;;5.57;;
26191;SDS011;13935;55.672;37.764;2023-05-18T07:27:15;9.15;;;5.70;;
26191;SDS011;13935;55.672;37.764;2023-05-18T07:28:18;9.10;;;6.13;;
26191;SDS011;13935;55.672;37.764;2023-05-18T07:29:20;8.52;;;5.90;;
26191;SDS011;13935;55.672;37.764;2023-05-18T07:30:23;7.35;;;5.90;;
26191;SDS011;13935;55.672;37.764;2023-05-18T07:31:27;7.40;;;5.38;;
26191;SDS011;13935;55.672;37.764;2023-05-18T07:32:30;8.43;;;5.13;;
26191;SDS011;13935;55.672;37.764;2023-05-18T07:33:32;7.45;;;5.70;;
26191;SDS011;13935;55.672;37.764;2023-05-18T07:34:34;6.05;;;5.18;;
26191;SDS011;13935;55.672;37.764;2023-05-18T07:35:37;9.68;;;6.95;;
26191;SDS011;13935;55.672;37.764;2023-05-18T07:36:39;8.45;;;5.90;;
26191;SDS011;13935;55.672;37.764;2023-05-18T07:37:42;9.25;;;6.35;;
26191;SDS011;13935;55.672;37.764;2023-05-18T07:38:44;11.30;;;5.65;;
26191;SDS011;13935;55.672;37.764;2023-05-18T07:39:48;9.80;;;6.22;;
26191;SDS011;13935;55.672;37.764;2023-05-18T07:40:50;7.75;;;5.82;;
26191;SDS011;13935;55.672;37.764;2023-05-18T07:41:52;8.20;;;5.97;;
26191;SDS011;13935;55.672;37.764;2023-05-18T07:42:55;10.13;;;7.53;;
26191;SDS011;13935;55.672;37.764;2023-05-18T07:43:57;7.57;;;6.53;;
26191;SDS011;13935;55.672;37.764;2023-05-18T07:44:59;9.25;;;6.50;;
26191;SDS011;13935;55.672;37.764;2023-05-18T07:46:01;9.55;;;6.22;;
26191;SDS011;13935;55.672;37.764;2023-05-18T07:47:03;7.97;;;6.22;;
26191;SDS011;13935;55.672;37.764;2023-05-18T07:48:05;8.63;;;6.45;;
26191;SDS011;13935;55.672;37.764;2023-05-18T07:49:08;9.10;;;6.15;;
26191;SDS011;13935;55.672;37.764;2023-05-18T07:50:11;8.25;;;6.38;;
26191;SDS011;13935;55.672;37.764;2023-05-18T07:51:12;9.20;;;6.10;;
26191;SDS011;13935;55.672;37.764;2023-05-18T07:52:14;7.55;;;6.28;;
26191;SDS011;13935;55.672;37.764;2023-05-18T07:53:16;8.93;;;6.35;;
26191;SDS011;13935;55.672;37.764;2023-05-18T07:54:20;10.60;;;5.95;;
26191;SDS011;13935;55.672;37.764;2023-05-18T07:55:22;6.03;;;5.43;;
26191;SDS011;13935;55.672;37.764;2023-05-18T07:56:24;10.43;;;6.65;;
26191;SDS011;13935;55.672;37.764;2023-05-18T07:57:26;7.90;;;6.25;;
26191;SDS011;13935;55.672;37.764;2023-05-18T07:58:28;10.75;;;6.20;;
26191;SDS011;13935;55.672;37.764;2023-05-18T07:59:32;8.00;;;6.50;;
26191;SDS011;13935;55.672;37.764;2023-05-18T08:00:34;10.30;;;6.40;;
26191;SDS011;13935;55.672;37.764;2023-05-18T08:01:36;12.48;;;6.53;;
26191;SDS011;13935;55.672;37.764;2023-05-18T08:02:39;7.18;;;6.07;;
26191;SDS011;13935;55.672;37.764;2023-05-18T08:03:41;8.45;;;6.05;;
26191;SDS011;13935;55.672;37.764;2023-05-18T08:04:45;8.55;;;5.95;;
26191;SDS011;13935;55.672;37.764;2023-05-18T08:05:48;6.80;;;5.90;;
26191;SDS011;13935;55.672;37.764;2023-05-18T08:06:50;7.35;;;5.85;;
26191;SDS011;13935;55.672;37.764;2023-05-18T08:07:55;8.90;;;6.43;;
26191;SDS011;13935;55.672;37.764;2023-05-18T08:08:57;8.23;;;5.80;;
26191;SDS011;13935;55.672;37.764;2023-05-18T08:10:00;8.93;;;5.93;;
26191;SDS011;13935;55.672;37.764;2023-05-18T08:11:03;8.80;;;6.47;;
26191;SDS011;13935;55.672;37.764;2023-05-18T08:12:06;8.65;;;5.63;;
26191;SDS011;13935;55.672;37.764;2023-05-18T08:13:10;7.32;;;5.90;;
26191;SDS011;13935;55.672;37.764;2023-05-18T08:14:13;9.30;;;5.80;;
26191;SDS011;13935;55.672;37.764;2023-05-18T08:15:17;8.20;;;6.25;;
26191;SDS011;13935;55.672;37.764;2023-05-18T08:16:22;8.77;;;6.70;;
26191;SDS011;13935;55.672;37.764;2023-05-18T08:17:24;10.25;;;5.82;;
26191;SDS011;13935;55.672;37.764;2023-05-18T08:18:27;7.43;;;6.15;;
26191;SDS011;13935;55.672;37.764;2023-05-18T08:20:58;9.48;;;6.63;;
26191;SDS011;13935;55.672;37.764;2023-05-18T08:22:13;8.77;;;6.22;;
26191;SDS011;13935;55.672;37.764;2023-05-18T08:23:59;7.93;;;6.32;;
26191;SDS011;13935;55.672;37.764;2023-05-18T08:25:05;7.88;;;6.22;;
26191;SDS011;13935;55.672;37.764;2023-05-18T08:26:15;7.47;;;6.00;;
26191;SDS011;13935;55.672;37.764;2023-05-18T08:27:19;8.73;;;6.07;;
26191;SDS011;13935;55.672;37.764;2023-05-18T08:28:48;7.38;;;6.10;;
26191;SDS011;13935;55.672;37.764;2023-05-18T08:31:36;7.45;;;5.80;;
26191;SDS011;13935;55.672;37.764;2023-05-18T08:32:46;9.13;;;6.22;;
26191;SDS011;13935;55.672;37.764;2023-05-18T08:34:04;10.43;;;6.10;;
26191;SDS011;13935;55.672;37.764;2023-05-18T08:36:42;9.07;;;6.80;;
26191;SDS011;13935;55.672;37.764;2023-05-18T08:37:46;11.25;;;6.25;;
26191;SDS011;13935;55.672;37.764;2023-05-18T08:39:01;11.00;;;6.72;;
26191;SDS011;13935;55.672;37.764;2023-05-18T08:40:12;10.82;;;6.65;;
26191;SDS011;13935;55.672;37.764;2023-05-18T08:41:29;10.25;;;6.85;;
26191;SDS011;13935;55.672;37.764;2023-05-18T08:42:39;9.73;;;6.82;;